CDC8987 RJSS-ZSHC
Flight info
| Callsign | CDC8987 |
|---|---|
| Flight time | 3h 2m |
| Altitude | 26000 |
| Route | GTC Y142 SAMON Y14 OLTUN/N0448F280 Y14 DGC Y28 ISAKY POTET A593 LAMEN/K0819S0840 G327 NINAS B221 SUPAR SUPAR91 |
| Aircraft | A21N/M-SDE3FGHIRWY/LB1 |
Departure
| Time | 2026-04-25 04:54 |
|---|---|
| Airport | Sendai Airport (RJSS) |
Arrival
| Time | 2026-04-25 07:57 |
|---|---|
| Airport | Hangzhou Xiaoshan International Airport (ZSHC) |
| Time | Latitude | Longitude | Altitude | Speed | Heading |
|---|---|---|---|---|---|
| 2026-04-25 04:32 | 38.13867 | 140.92773 | 23 ft | 0 kts | 172° |
| 2026-04-25 04:43 | 38.13868 | 140.92772 | 23 ft | 1 kts | 173° |
| 2026-04-25 04:43 | 38.13883 | 140.92770 | 23 ft | 2 kts | 172° |
| 2026-04-25 04:44 | 38.13898 | 140.92767 | 23 ft | 2 kts | 172° |
| 2026-04-25 04:44 | 38.13913 | 140.92764 | 23 ft | 2 kts | 172° |
| 2026-04-25 04:44 | 38.13927 | 140.92763 | 23 ft | 2 kts | 172° |
| 2026-04-25 04:44 | 38.13942 | 140.92760 | 23 ft | 2 kts | 172° |
| 2026-04-25 04:45 | 38.13958 | 140.92758 | 23 ft | 2 kts | 173° |
| 2026-04-25 04:45 | 38.13972 | 140.92755 | 23 ft | 2 kts | 172° |
| 2026-04-25 04:45 | 38.13988 | 140.92755 | 23 ft | 2 kts | 200° |
| 2026-04-25 04:45 | 38.14001 | 140.92764 | 23 ft | 2 kts | 224° |
| 2026-04-25 04:46 | 38.14010 | 140.92780 | 23 ft | 2 kts | 249° |
| 2026-04-25 04:46 | 38.14012 | 140.92790 | 23 ft | 1 kts | 264° |
| 2026-04-25 04:46 | 38.14012 | 140.92796 | 23 ft | 0 kts | 263° |
| 2026-04-25 04:48 | 38.14011 | 140.92786 | 23 ft | 4 kts | 262° |
| 2026-04-25 04:48 | 38.14002 | 140.92705 | 23 ft | 10 kts | 262° |
| 2026-04-25 04:48 | 38.13992 | 140.92607 | 23 ft | 11 kts | 262° |
| 2026-04-25 04:49 | 38.13981 | 140.92503 | 23 ft | 12 kts | 263° |
| 2026-04-25 04:49 | 38.13970 | 140.92395 | 23 ft | 12 kts | 263° |
| 2026-04-25 04:49 | 38.13958 | 140.92279 | 23 ft | 13 kts | 262° |
| 2026-04-25 04:49 | 38.13945 | 140.92151 | 23 ft | 16 kts | 262° |
| 2026-04-25 04:50 | 38.13928 | 140.91992 | 23 ft | 19 kts | 262° |
| 2026-04-25 04:50 | 38.13908 | 140.91808 | 23 ft | 22 kts | 262° |
| 2026-04-25 04:50 | 38.13887 | 140.91594 | 23 ft | 25 kts | 263° |
| 2026-04-25 04:50 | 38.13862 | 140.91357 | 23 ft | 27 kts | 263° |
| 2026-04-25 04:51 | 38.13837 | 140.91119 | 23 ft | 26 kts | 262° |
| 2026-04-25 04:51 | 38.13815 | 140.90894 | 23 ft | 25 kts | 263° |
| 2026-04-25 04:51 | 38.13792 | 140.90677 | 23 ft | 24 kts | 262° |
| 2026-04-25 04:51 | 38.13770 | 140.90471 | 23 ft | 23 kts | 263° |
| 2026-04-25 04:52 | 38.13749 | 140.90269 | 23 ft | 22 kts | 263° |
| 2026-04-25 04:52 | 38.13728 | 140.90077 | 23 ft | 21 kts | 262° |
| 2026-04-25 04:52 | 38.13757 | 140.89911 | 23 ft | 20 kts | 336° |
| 2026-04-25 04:52 | 38.13873 | 140.89888 | 23 ft | 8 kts | 17° |
| 2026-04-25 04:53 | 38.13881 | 140.89905 | 23 ft | 0 kts | 94° |
| 2026-04-25 04:53 | 38.13881 | 140.89912 | 23 ft | 1 kts | 85° |
| 2026-04-25 04:53 | 38.13893 | 140.90042 | 23 ft | 44 kts | 83° |
| 2026-04-25 04:53 | 38.13967 | 140.90755 | 23 ft | 115 kts | 83° |
| 2026-04-25 04:54 | 38.14100 | 140.92018 | 67 ft | 167 kts | 85° |
| 2026-04-25 04:54 | 38.14260 | 140.93500 | 612 ft | 174 kts | 84° |
| 2026-04-25 04:54 | 38.14426 | 140.95007 | 1395 ft | 174 kts | 85° |
| 2026-04-25 04:54 | 38.14575 | 140.96515 | 2082 ft | 180 kts | 85° |
| 2026-04-25 04:55 | 38.14733 | 140.98167 | 2586 ft | 196 kts | 85° |
| 2026-04-25 04:55 | 38.14874 | 140.99948 | 3028 ft | 211 kts | 92° |
| 2026-04-25 04:55 | 38.14434 | 141.01755 | 3349 ft | 229 kts | 127° |
| 2026-04-25 04:55 | 38.13134 | 141.03046 | 3796 ft | 244 kts | 162° |
| 2026-04-25 04:56 | 38.11465 | 141.03203 | 4499 ft | 248 kts | 191° |
| 2026-04-25 04:56 | 38.09777 | 141.02725 | 5264 ft | 252 kts | 193° |
| 2026-04-25 04:56 | 38.08057 | 141.02277 | 5990 ft | 258 kts | 192° |
| 2026-04-25 04:56 | 38.06283 | 141.01833 | 6678 ft | 263 kts | 193° |
| 2026-04-25 04:57 | 38.04475 | 141.01384 | 7402 ft | 268 kts | 192° |
| 2026-04-25 04:57 | 38.02637 | 141.00931 | 8132 ft | 272 kts | 192° |
| 2026-04-25 04:57 | 38.00789 | 141.00404 | 8814 ft | 276 kts | 202° |
| 2026-04-25 04:57 | 37.99194 | 140.99115 | 9481 ft | 275 kts | 229° |
| 2026-04-25 04:58 | 37.98201 | 140.97095 | 10158 ft | 273 kts | 254° |
| 2026-04-25 04:58 | 37.97946 | 140.94727 | 10730 ft | 276 kts | 276° |
| 2026-04-25 04:58 | 37.98173 | 140.92253 | 11145 ft | 292 kts | 279° |
| 2026-04-25 04:58 | 37.98439 | 140.89632 | 11445 ft | 310 kts | 279° |
| 2026-04-25 04:59 | 37.98704 | 140.86876 | 11750 ft | 327 kts | 278° |
| 2026-04-25 04:59 | 37.98972 | 140.83945 | 12045 ft | 344 kts | 278° |
| 2026-04-25 04:59 | 37.99247 | 140.80837 | 12357 ft | 361 kts | 278° |
| 2026-04-25 04:59 | 37.99526 | 140.77628 | 12629 ft | 376 kts | 277° |
| 2026-04-25 05:00 | 37.99814 | 140.74287 | 12906 ft | 391 kts | 277° |
| 2026-04-25 05:00 | 38.00107 | 140.70839 | 13352 ft | 399 kts | 277° |
| 2026-04-25 05:00 | 38.00406 | 140.67316 | 13979 ft | 402 kts | 277° |
| 2026-04-25 05:00 | 38.00641 | 140.63809 | 14622 ft | 404 kts | 274° |
| 2026-04-25 05:01 | 38.00717 | 140.60237 | 15273 ft | 406 kts | 271° |
| 2026-04-25 05:01 | 38.00650 | 140.56679 | 15913 ft | 408 kts | 269° |
| 2026-04-25 05:01 | 38.00550 | 140.53081 | 16529 ft | 410 kts | 269° |
| 2026-04-25 05:01 | 38.00447 | 140.49468 | 17119 ft | 411 kts | 269° |
| 2026-04-25 05:02 | 38.00346 | 140.45879 | 17604 ft | 414 kts | 269° |
| 2026-04-25 05:02 | 38.00243 | 140.42194 | 18134 ft | 417 kts | 269° |
| 2026-04-25 05:02 | 38.00141 | 140.38525 | 18657 ft | 419 kts | 269° |
| 2026-04-25 05:02 | 38.00037 | 140.34854 | 19162 ft | 421 kts | 269° |
| 2026-04-25 05:03 | 37.99931 | 140.31148 | 19669 ft | 423 kts | 268° |
| 2026-04-25 05:03 | 37.99822 | 140.27432 | 20104 ft | 426 kts | 269° |
| 2026-04-25 05:03 | 37.99710 | 140.23659 | 20600 ft | 428 kts | 268° |
| 2026-04-25 05:03 | 37.99598 | 140.19902 | 21095 ft | 429 kts | 269° |
| 2026-04-25 05:04 | 37.99484 | 140.16128 | 21504 ft | 432 kts | 268° |
| 2026-04-25 05:04 | 37.99369 | 140.12344 | 21948 ft | 434 kts | 268° |
| 2026-04-25 05:04 | 37.99252 | 140.08508 | 22402 ft | 436 kts | 268° |
| 2026-04-25 05:04 | 37.99132 | 140.04703 | 22783 ft | 438 kts | 268° |
| 2026-04-25 05:05 | 37.99010 | 140.00829 | 23303 ft | 437 kts | 268° |
| 2026-04-25 05:05 | 37.98888 | 139.97034 | 23963 ft | 433 kts | 268° |
| 2026-04-25 05:05 | 37.98767 | 139.93234 | 24550 ft | 430 kts | 268° |
| 2026-04-25 05:05 | 37.98645 | 139.89502 | 25000 ft | 430 kts | 268° |
| 2026-04-25 05:06 | 37.98520 | 139.85695 | 25340 ft | 432 kts | 268° |
| 2026-04-25 05:06 | 37.98395 | 139.81883 | 25729 ft | 433 kts | 268° |
| 2026-04-25 05:06 | 37.98268 | 139.78110 | 26077 ft | 432 kts | 268° |
| 2026-04-25 05:06 | 37.98141 | 139.74333 | 26146 ft | 433 kts | 268° |
| 2026-04-25 05:07 | 37.98008 | 139.70487 | 26153 ft | 434 kts | 268° |
| 2026-04-25 05:07 | 37.97877 | 139.66696 | 26158 ft | 434 kts | 268° |
| 2026-04-25 05:07 | 37.97743 | 139.62898 | 26142 ft | 432 kts | 268° |
| 2026-04-25 05:07 | 37.97610 | 139.59114 | 26159 ft | 432 kts | 268° |
| 2026-04-25 05:08 | 37.97477 | 139.55312 | 26162 ft | 432 kts | 268° |
| 2026-04-25 05:08 | 37.97342 | 139.51552 | 26155 ft | 432 kts | 268° |
| 2026-04-25 05:08 | 37.97202 | 139.47710 | 26155 ft | 432 kts | 268° |
| 2026-04-25 05:08 | 37.97063 | 139.43941 | 26149 ft | 433 kts | 268° |
| 2026-04-25 05:09 | 37.96925 | 139.40163 | 26159 ft | 432 kts | 268° |
| 2026-04-25 05:09 | 37.96786 | 139.36350 | 26159 ft | 433 kts | 268° |
| 2026-04-25 05:09 | 37.96642 | 139.32552 | 26156 ft | 433 kts | 267° |
| 2026-04-25 05:09 | 37.96498 | 139.28761 | 26164 ft | 433 kts | 268° |
| 2026-04-25 05:10 | 37.96355 | 139.24951 | 26159 ft | 434 kts | 267° |
| 2026-04-25 05:10 | 37.96207 | 139.21103 | 26155 ft | 434 kts | 268° |
| 2026-04-25 05:10 | 37.96055 | 139.17334 | 26155 ft | 433 kts | 266° |
| 2026-04-25 05:10 | 37.95682 | 139.13553 | 26164 ft | 434 kts | 261° |
| 2026-04-25 05:11 | 37.94992 | 139.09839 | 26161 ft | 436 kts | 255° |
| 2026-04-25 05:11 | 37.93986 | 139.06204 | 26151 ft | 437 kts | 249° |
| 2026-04-25 05:11 | 37.92799 | 139.02663 | 26166 ft | 437 kts | 248° |
| 2026-04-25 05:12 | 37.90370 | 138.95657 | 26172 ft | 437 kts | 248° |
| 2026-04-25 05:12 | 37.89146 | 138.92140 | 26175 ft | 436 kts | 248° |
| 2026-04-25 05:12 | 37.87921 | 138.88619 | 26173 ft | 436 kts | 248° |
| 2026-04-25 05:12 | 37.86701 | 138.85109 | 26175 ft | 437 kts | 248° |
| 2026-04-25 05:13 | 37.85474 | 138.81589 | 26185 ft | 437 kts | 248° |
| 2026-04-25 05:13 | 37.84264 | 138.78117 | 26168 ft | 437 kts | 248° |
| 2026-04-25 05:13 | 37.83042 | 138.74614 | 26161 ft | 436 kts | 248° |
| 2026-04-25 05:13 | 37.81805 | 138.71072 | 26175 ft | 436 kts | 248° |
| 2026-04-25 05:14 | 37.80583 | 138.67574 | 26162 ft | 436 kts | 248° |
| 2026-04-25 05:14 | 37.79372 | 138.64111 | 26165 ft | 435 kts | 248° |
| 2026-04-25 05:14 | 37.78138 | 138.60590 | 26162 ft | 436 kts | 248° |
| 2026-04-25 05:15 | 37.75700 | 138.53645 | 26169 ft | 436 kts | 248° |
| 2026-04-25 05:15 | 37.74461 | 138.50120 | 26160 ft | 437 kts | 248° |
| 2026-04-25 05:15 | 37.73237 | 138.46646 | 26166 ft | 436 kts | 248° |
| 2026-04-25 05:15 | 37.72013 | 138.43173 | 26167 ft | 436 kts | 248° |
| 2026-04-25 05:16 | 37.70783 | 138.39690 | 26162 ft | 436 kts | 248° |
| 2026-04-25 05:16 | 37.69553 | 138.36204 | 26165 ft | 436 kts | 248° |
| 2026-04-25 05:16 | 37.68310 | 138.32687 | 26160 ft | 437 kts | 248° |
| 2026-04-25 05:16 | 37.67075 | 138.29196 | 26159 ft | 437 kts | 248° |
| 2026-04-25 05:17 | 37.65841 | 138.25713 | 26163 ft | 436 kts | 248° |
| 2026-04-25 05:17 | 37.64610 | 138.22241 | 26159 ft | 435 kts | 248° |
| 2026-04-25 05:17 | 37.63374 | 138.18758 | 26159 ft | 436 kts | 248° |
| 2026-04-25 05:17 | 37.62136 | 138.15276 | 26164 ft | 437 kts | 248° |
| 2026-04-25 05:18 | 37.60895 | 138.11789 | 26164 ft | 436 kts | 248° |
| 2026-04-25 05:18 | 37.59649 | 138.08295 | 26168 ft | 437 kts | 248° |
| 2026-04-25 05:18 | 37.58402 | 138.04797 | 26163 ft | 437 kts | 247° |
| 2026-04-25 05:18 | 37.57168 | 138.01346 | 26168 ft | 438 kts | 248° |
| 2026-04-25 05:19 | 37.55917 | 137.97849 | 26167 ft | 438 kts | 247° |
| 2026-04-25 05:19 | 37.54666 | 137.94351 | 26165 ft | 438 kts | 247° |
| 2026-04-25 05:19 | 37.53412 | 137.90855 | 26167 ft | 437 kts | 248° |
| 2026-04-25 05:19 | 37.52171 | 137.87404 | 26174 ft | 438 kts | 248° |
| 2026-04-25 05:20 | 37.50911 | 137.83893 | 26164 ft | 438 kts | 248° |
| 2026-04-25 05:20 | 37.49652 | 137.80394 | 26172 ft | 438 kts | 248° |
| 2026-04-25 05:20 | 37.48408 | 137.76942 | 26169 ft | 437 kts | 247° |
| 2026-04-25 05:20 | 37.47150 | 137.73450 | 26164 ft | 437 kts | 248° |
| 2026-04-25 05:21 | 37.45892 | 137.69965 | 26172 ft | 438 kts | 248° |
| 2026-04-25 05:21 | 37.44646 | 137.66519 | 26167 ft | 437 kts | 248° |
| 2026-04-25 05:21 | 37.43383 | 137.63026 | 26163 ft | 438 kts | 248° |
| 2026-04-25 05:21 | 37.42119 | 137.59537 | 26165 ft | 437 kts | 248° |
| 2026-04-25 05:22 | 37.40868 | 137.56088 | 26163 ft | 438 kts | 248° |
| 2026-04-25 05:22 | 37.39605 | 137.52606 | 26167 ft | 438 kts | 248° |
| 2026-04-25 05:22 | 37.38341 | 137.49129 | 26166 ft | 439 kts | 247° |
| 2026-04-25 05:22 | 37.37080 | 137.45666 | 26168 ft | 439 kts | 248° |
| 2026-04-25 05:23 | 37.35798 | 137.42148 | 26162 ft | 439 kts | 248° |
| 2026-04-25 05:23 | 37.34540 | 137.38698 | 26156 ft | 440 kts | 248° |
| 2026-04-25 05:23 | 37.33261 | 137.35196 | 26165 ft | 439 kts | 248° |
| 2026-04-25 05:23 | 37.31996 | 137.31735 | 26167 ft | 440 kts | 247° |
| 2026-04-25 05:24 | 37.30725 | 137.28261 | 26170 ft | 440 kts | 247° |
| 2026-04-25 05:24 | 37.29454 | 137.24797 | 26170 ft | 440 kts | 247° |
| 2026-04-25 05:24 | 37.28169 | 137.21286 | 26166 ft | 440 kts | 247° |
| 2026-04-25 05:24 | 37.26899 | 137.17830 | 26170 ft | 441 kts | 247° |
| 2026-04-25 05:25 | 37.25624 | 137.14362 | 26167 ft | 441 kts | 247° |
| 2026-04-25 05:25 | 37.24328 | 137.10837 | 26162 ft | 441 kts | 247° |
| 2026-04-25 05:25 | 37.23048 | 137.07362 | 26169 ft | 441 kts | 247° |
| 2026-04-25 05:25 | 37.21757 | 137.03863 | 26169 ft | 441 kts | 247° |
| 2026-04-25 05:26 | 37.20481 | 137.00409 | 26177 ft | 440 kts | 246° |
| 2026-04-25 05:26 | 37.19203 | 136.96953 | 26174 ft | 441 kts | 247° |
| 2026-04-25 05:26 | 37.17918 | 136.93486 | 26174 ft | 440 kts | 246° |
| 2026-04-25 05:26 | 37.16629 | 136.90008 | 26171 ft | 441 kts | 247° |
| 2026-04-25 05:27 | 37.15328 | 136.86502 | 26173 ft | 441 kts | 247° |
| 2026-04-25 05:27 | 37.14045 | 136.83050 | 26166 ft | 441 kts | 247° |
| 2026-04-25 05:27 | 37.12754 | 136.79578 | 26164 ft | 441 kts | 247° |
| 2026-04-25 05:27 | 37.11447 | 136.76064 | 26158 ft | 442 kts | 247° |
| 2026-04-25 05:28 | 37.10159 | 136.72609 | 26169 ft | 441 kts | 247° |
| 2026-04-25 05:28 | 37.08863 | 136.69136 | 26165 ft | 442 kts | 247° |
| 2026-04-25 05:28 | 37.07567 | 136.65662 | 26169 ft | 443 kts | 247° |
| 2026-04-25 05:28 | 37.06269 | 136.62190 | 26170 ft | 442 kts | 247° |
| 2026-04-25 05:29 | 37.04968 | 136.58705 | 26164 ft | 442 kts | 247° |
| 2026-04-25 05:29 | 37.03672 | 136.55244 | 26172 ft | 443 kts | 246° |
| 2026-04-25 05:29 | 37.02356 | 136.51738 | 26159 ft | 442 kts | 246° |
| 2026-04-25 05:29 | 37.01054 | 136.48271 | 26165 ft | 441 kts | 246° |
| 2026-04-25 05:30 | 36.99745 | 136.44791 | 26172 ft | 441 kts | 247° |
| 2026-04-25 05:30 | 36.98443 | 136.41330 | 26159 ft | 442 kts | 247° |
| 2026-04-25 05:30 | 36.97130 | 136.37848 | 26149 ft | 442 kts | 247° |
| 2026-04-25 05:30 | 36.95826 | 136.34393 | 26159 ft | 441 kts | 246° |
| 2026-04-25 05:31 | 36.94523 | 136.30943 | 26172 ft | 441 kts | 246° |
| 2026-04-25 05:31 | 36.93212 | 136.27475 | 26166 ft | 443 kts | 246° |
| 2026-04-25 05:31 | 36.91914 | 136.24042 | 26159 ft | 442 kts | 246° |
| 2026-04-25 05:31 | 36.90604 | 136.20587 | 26159 ft | 441 kts | 246° |
| 2026-04-25 05:32 | 36.89297 | 136.17133 | 26172 ft | 441 kts | 246° |
| 2026-04-25 05:32 | 36.87969 | 136.13632 | 26158 ft | 443 kts | 246° |
| 2026-04-25 05:32 | 36.86663 | 136.10200 | 26146 ft | 441 kts | 246° |
| 2026-04-25 05:32 | 36.85345 | 136.06740 | 26165 ft | 440 kts | 246° |
| 2026-04-25 05:33 | 36.84045 | 136.03330 | 26166 ft | 440 kts | 246° |
| 2026-04-25 05:33 | 36.82729 | 135.99884 | 26157 ft | 440 kts | 246° |
| 2026-04-25 05:33 | 36.81417 | 135.96445 | 26152 ft | 440 kts | 246° |
| 2026-04-25 05:33 | 36.80092 | 135.92981 | 26165 ft | 439 kts | 246° |
| 2026-04-25 05:34 | 36.78777 | 135.89540 | 26170 ft | 441 kts | 246° |
| 2026-04-25 05:34 | 36.77461 | 135.86104 | 26147 ft | 441 kts | 246° |
| 2026-04-25 05:34 | 36.76146 | 135.82675 | 26153 ft | 439 kts | 246° |
| 2026-04-25 05:34 | 36.74829 | 135.79245 | 26167 ft | 439 kts | 246° |
| 2026-04-25 05:35 | 36.73514 | 135.75818 | 26159 ft | 439 kts | 246° |
| 2026-04-25 05:35 | 36.72211 | 135.72430 | 26179 ft | 439 kts | 246° |
| 2026-04-25 05:35 | 36.70888 | 135.68994 | 26165 ft | 439 kts | 246° |
| 2026-04-25 05:35 | 36.69572 | 135.65582 | 26148 ft | 438 kts | 246° |
| 2026-04-25 05:36 | 36.68246 | 135.62152 | 26154 ft | 438 kts | 246° |
| 2026-04-25 05:36 | 36.66932 | 135.58756 | 26153 ft | 437 kts | 246° |
| 2026-04-25 05:36 | 36.65619 | 135.55360 | 26162 ft | 436 kts | 246° |
| 2026-04-25 05:36 | 36.64307 | 135.51970 | 26164 ft | 435 kts | 246° |
| 2026-04-25 05:37 | 36.62998 | 135.48593 | 26159 ft | 435 kts | 246° |
| 2026-04-25 05:37 | 36.61681 | 135.45201 | 26154 ft | 435 kts | 246° |
| 2026-04-25 05:37 | 36.60377 | 135.41846 | 26170 ft | 435 kts | 246° |
| 2026-04-25 05:37 | 36.59065 | 135.38466 | 26154 ft | 435 kts | 246° |
| 2026-04-25 05:38 | 36.57751 | 135.35089 | 26169 ft | 435 kts | 246° |
| 2026-04-25 05:38 | 36.56425 | 135.31685 | 26144 ft | 435 kts | 245° |
| 2026-04-25 05:38 | 36.55107 | 135.28308 | 26154 ft | 434 kts | 246° |
| 2026-04-25 05:38 | 36.53802 | 135.24968 | 26161 ft | 434 kts | 246° |
| 2026-04-25 05:39 | 36.52481 | 135.21590 | 26153 ft | 434 kts | 246° |
| 2026-04-25 05:39 | 36.51167 | 135.18231 | 26158 ft | 435 kts | 246° |
| 2026-04-25 05:39 | 36.49839 | 135.14841 | 26139 ft | 434 kts | 246° |
| 2026-04-25 05:39 | 36.48535 | 135.11520 | 26161 ft | 433 kts | 246° |
| 2026-04-25 05:40 | 36.47208 | 135.08139 | 26164 ft | 433 kts | 246° |
| 2026-04-25 05:40 | 36.45889 | 135.04779 | 26144 ft | 434 kts | 246° |
| 2026-04-25 05:40 | 36.44562 | 135.01407 | 26154 ft | 434 kts | 246° |
| 2026-04-25 05:40 | 36.43242 | 134.98055 | 26154 ft | 434 kts | 245° |
| 2026-04-25 05:41 | 36.41917 | 134.94698 | 26156 ft | 435 kts | 245° |
| 2026-04-25 05:41 | 36.40589 | 134.91330 | 26149 ft | 434 kts | 245° |
| 2026-04-25 05:41 | 36.39282 | 134.88025 | 26150 ft | 433 kts | 246° |
| 2026-04-25 05:41 | 36.37959 | 134.84679 | 26160 ft | 433 kts | 246° |
| 2026-04-25 05:42 | 36.36634 | 134.81334 | 26158 ft | 433 kts | 246° |
| 2026-04-25 05:42 | 36.35297 | 134.77966 | 26137 ft | 433 kts | 246° |
| 2026-04-25 05:42 | 36.33970 | 134.74618 | 26151 ft | 432 kts | 245° |
| 2026-04-25 05:42 | 36.32648 | 134.71289 | 26148 ft | 432 kts | 246° |
| 2026-04-25 05:43 | 36.31334 | 134.67981 | 26150 ft | 432 kts | 245° |
| 2026-04-25 05:43 | 36.29998 | 134.64627 | 26149 ft | 432 kts | 246° |
| 2026-04-25 05:43 | 36.28675 | 134.61307 | 26139 ft | 432 kts | 246° |
| 2026-04-25 05:43 | 36.27346 | 134.57980 | 26164 ft | 433 kts | 245° |
| 2026-04-25 05:44 | 36.26009 | 134.54629 | 26143 ft | 433 kts | 245° |
| 2026-04-25 05:44 | 36.24643 | 134.51302 | 26139 ft | 433 kts | 244° |
| 2026-04-25 05:44 | 36.23157 | 134.48068 | 26154 ft | 433 kts | 242° |
| 2026-04-25 05:44 | 36.21603 | 134.44920 | 26155 ft | 434 kts | 241° |
| 2026-04-25 05:45 | 36.20035 | 134.41748 | 26150 ft | 434 kts | 241° |
| 2026-04-25 05:45 | 36.18458 | 134.38560 | 26137 ft | 434 kts | 240° |
| 2026-04-25 05:45 | 36.16882 | 134.35388 | 26142 ft | 432 kts | 240° |
| 2026-04-25 05:45 | 36.15324 | 134.32251 | 26145 ft | 431 kts | 240° |
| 2026-04-25 05:46 | 36.13744 | 134.29079 | 26147 ft | 431 kts | 240° |
| 2026-04-25 05:46 | 36.12166 | 134.25911 | 26154 ft | 432 kts | 240° |
| 2026-04-25 05:46 | 36.10610 | 134.22786 | 26153 ft | 432 kts | 240° |
| 2026-04-25 05:46 | 36.09041 | 134.19641 | 26152 ft | 433 kts | 240° |
| 2026-04-25 05:47 | 36.07444 | 134.16444 | 26139 ft | 433 kts | 240° |
| 2026-04-25 05:47 | 36.05887 | 134.13330 | 26145 ft | 431 kts | 240° |
| 2026-04-25 05:47 | 36.04294 | 134.10146 | 26137 ft | 431 kts | 240° |
| 2026-04-25 05:47 | 36.02728 | 134.07021 | 26139 ft | 431 kts | 240° |
| 2026-04-25 05:48 | 36.01160 | 134.03894 | 26134 ft | 432 kts | 240° |
| 2026-04-25 05:48 | 35.99578 | 134.00742 | 26130 ft | 432 kts | 240° |
| 2026-04-25 05:48 | 35.97998 | 133.97598 | 26124 ft | 433 kts | 240° |
| 2026-04-25 05:48 | 35.96421 | 133.94458 | 26123 ft | 433 kts | 240° |
| 2026-04-25 05:49 | 35.94831 | 133.91298 | 26119 ft | 432 kts | 240° |
| 2026-04-25 05:49 | 35.93244 | 133.88147 | 26120 ft | 433 kts | 240° |
| 2026-04-25 05:49 | 35.91663 | 133.85007 | 26123 ft | 432 kts | 240° |
| 2026-04-25 05:49 | 35.90080 | 133.81863 | 26119 ft | 432 kts | 240° |
| 2026-04-25 05:50 | 35.88507 | 133.78748 | 26125 ft | 432 kts | 240° |
| 2026-04-25 05:50 | 35.86917 | 133.75603 | 26119 ft | 433 kts | 240° |
| 2026-04-25 05:50 | 35.85314 | 133.72437 | 26118 ft | 431 kts | 240° |
| 2026-04-25 05:50 | 35.83735 | 133.69318 | 26113 ft | 431 kts | 240° |
| 2026-04-25 05:51 | 35.82155 | 133.66199 | 26118 ft | 430 kts | 240° |
| 2026-04-25 05:51 | 35.80573 | 133.63081 | 26111 ft | 431 kts | 240° |
| 2026-04-25 05:51 | 35.78992 | 133.59964 | 26110 ft | 431 kts | 240° |
| 2026-04-25 05:51 | 35.77409 | 133.56851 | 26107 ft | 431 kts | 240° |
| 2026-04-25 05:52 | 35.75817 | 133.53720 | 26100 ft | 430 kts | 240° |
| 2026-04-25 05:52 | 35.74238 | 133.50619 | 26115 ft | 430 kts | 240° |
| 2026-04-25 05:52 | 35.72639 | 133.47481 | 26102 ft | 431 kts | 240° |
| 2026-04-25 05:52 | 35.71055 | 133.44374 | 26101 ft | 430 kts | 240° |
| 2026-04-25 05:53 | 35.69484 | 133.41299 | 26101 ft | 428 kts | 240° |
| 2026-04-25 05:53 | 35.67892 | 133.38188 | 26105 ft | 428 kts | 240° |
| 2026-04-25 05:53 | 35.66314 | 133.35098 | 26101 ft | 429 kts | 240° |
| 2026-04-25 05:53 | 35.64717 | 133.31981 | 26108 ft | 430 kts | 239° |
| 2026-04-25 05:54 | 35.63135 | 133.28891 | 26111 ft | 430 kts | 239° |
| 2026-04-25 05:54 | 35.61539 | 133.25777 | 26107 ft | 429 kts | 239° |
| 2026-04-25 05:54 | 35.58370 | 133.19608 | 26100 ft | 429 kts | 239° |
| 2026-04-25 05:55 | 35.56787 | 133.16531 | 26101 ft | 428 kts | 239° |
| 2026-04-25 05:55 | 35.55200 | 133.13444 | 26107 ft | 428 kts | 239° |
| 2026-04-25 05:55 | 35.53577 | 133.10368 | 26102 ft | 428 kts | 238° |
| 2026-04-25 05:55 | 35.51855 | 133.07411 | 26104 ft | 430 kts | 235° |
| 2026-04-25 05:56 | 35.50043 | 133.04512 | 26108 ft | 430 kts | 234° |
| 2026-04-25 05:56 | 35.48202 | 133.01572 | 26100 ft | 430 kts | 234° |
| 2026-04-25 05:56 | 35.46392 | 132.98680 | 26098 ft | 430 kts | 234° |
| 2026-04-25 05:56 | 35.44586 | 132.95802 | 26101 ft | 428 kts | 234° |
| 2026-04-25 05:57 | 35.42756 | 132.92888 | 26098 ft | 428 kts | 234° |
| 2026-04-25 05:57 | 35.40950 | 132.90019 | 26100 ft | 428 kts | 234° |
| 2026-04-25 05:57 | 35.39151 | 132.87161 | 26099 ft | 427 kts | 235° |
| 2026-04-25 05:57 | 35.37325 | 132.84262 | 26102 ft | 428 kts | 234° |
| 2026-04-25 05:58 | 35.35509 | 132.81378 | 26096 ft | 428 kts | 234° |
| 2026-04-25 05:58 | 35.33709 | 132.78529 | 26093 ft | 428 kts | 234° |
| 2026-04-25 05:58 | 35.31886 | 132.75644 | 26093 ft | 427 kts | 234° |
| 2026-04-25 05:58 | 35.30077 | 132.72778 | 26099 ft | 427 kts | 234° |
| 2026-04-25 05:59 | 35.28268 | 132.69922 | 26086 ft | 426 kts | 234° |
| 2026-04-25 05:59 | 35.26439 | 132.67035 | 26088 ft | 426 kts | 234° |
| 2026-04-25 05:59 | 35.24632 | 132.64182 | 26092 ft | 427 kts | 234° |
| 2026-04-25 05:59 | 35.22827 | 132.61336 | 26094 ft | 427 kts | 234° |
| 2026-04-25 06:00 | 35.20996 | 132.58450 | 26080 ft | 427 kts | 234° |
| 2026-04-25 06:00 | 35.19186 | 132.55606 | 26080 ft | 425 kts | 234° |
| 2026-04-25 06:00 | 35.17373 | 132.52754 | 26082 ft | 426 kts | 234° |
| 2026-04-25 06:00 | 35.15554 | 132.49892 | 26078 ft | 426 kts | 234° |
| 2026-04-25 06:01 | 35.13732 | 132.47031 | 26076 ft | 426 kts | 234° |
| 2026-04-25 06:01 | 35.11939 | 132.44217 | 26077 ft | 426 kts | 234° |
| 2026-04-25 06:01 | 35.10113 | 132.41360 | 26067 ft | 425 kts | 234° |
| 2026-04-25 06:01 | 35.08303 | 132.38522 | 26075 ft | 424 kts | 234° |
| 2026-04-25 06:02 | 35.06479 | 132.35672 | 26074 ft | 425 kts | 234° |
| 2026-04-25 06:02 | 35.04674 | 132.32849 | 26070 ft | 426 kts | 233° |
| 2026-04-25 06:02 | 35.02862 | 132.30017 | 26067 ft | 424 kts | 234° |
| 2026-04-25 06:02 | 35.01056 | 132.27199 | 26064 ft | 424 kts | 234° |
| 2026-04-25 06:03 | 34.99244 | 132.24373 | 26080 ft | 424 kts | 234° |
| 2026-04-25 06:03 | 34.97438 | 132.21553 | 26081 ft | 422 kts | 234° |
| 2026-04-25 06:03 | 34.95625 | 132.18730 | 26087 ft | 423 kts | 233° |
| 2026-04-25 06:03 | 34.93825 | 132.15930 | 26087 ft | 422 kts | 234° |
| 2026-04-25 06:04 | 34.91996 | 132.13084 | 26094 ft | 422 kts | 234° |
| 2026-04-25 06:04 | 34.90207 | 132.10301 | 26093 ft | 422 kts | 234° |
| 2026-04-25 06:04 | 34.88383 | 132.07475 | 26092 ft | 422 kts | 234° |
| 2026-04-25 06:04 | 34.86579 | 132.04675 | 26091 ft | 421 kts | 234° |
| 2026-04-25 06:05 | 34.84773 | 132.01877 | 26093 ft | 421 kts | 234° |
| 2026-04-25 06:05 | 34.82964 | 131.99072 | 26094 ft | 422 kts | 234° |
| 2026-04-25 06:05 | 34.81146 | 131.96262 | 26097 ft | 421 kts | 234° |
| 2026-04-25 06:05 | 34.79351 | 131.93484 | 26100 ft | 422 kts | 234° |
| 2026-04-25 06:06 | 34.77531 | 131.90677 | 26099 ft | 422 kts | 234° |
| 2026-04-25 06:06 | 34.75730 | 131.87901 | 26094 ft | 422 kts | 234° |
| 2026-04-25 06:06 | 34.73899 | 131.85080 | 26095 ft | 422 kts | 234° |
| 2026-04-25 06:06 | 34.72097 | 131.82304 | 26093 ft | 421 kts | 234° |
| 2026-04-25 06:07 | 34.70299 | 131.79532 | 26098 ft | 422 kts | 233° |
| 2026-04-25 06:07 | 34.68480 | 131.76735 | 26092 ft | 422 kts | 234° |
| 2026-04-25 06:07 | 34.66643 | 131.73914 | 26090 ft | 422 kts | 234° |
| 2026-04-25 06:07 | 34.64847 | 131.71156 | 26091 ft | 422 kts | 233° |
| 2026-04-25 06:08 | 34.63009 | 131.68338 | 26091 ft | 422 kts | 234° |
| 2026-04-25 06:08 | 34.61213 | 131.65582 | 26088 ft | 422 kts | 233° |
| 2026-04-25 06:08 | 34.59390 | 131.62790 | 26091 ft | 423 kts | 233° |
| 2026-04-25 06:08 | 34.57554 | 131.59984 | 26091 ft | 423 kts | 234° |
| 2026-04-25 06:09 | 34.55735 | 131.57204 | 26101 ft | 426 kts | 234° |
| 2026-04-25 06:09 | 34.53880 | 131.54367 | 26422 ft | 427 kts | 233° |
| 2026-04-25 06:09 | 34.52038 | 131.51555 | 27031 ft | 421 kts | 233° |
| 2026-04-25 06:09 | 34.50250 | 131.48834 | 27647 ft | 415 kts | 234° |
| 2026-04-25 06:10 | 34.48459 | 131.46109 | 28019 ft | 412 kts | 234° |
| 2026-04-25 06:10 | 34.46679 | 131.43394 | 28081 ft | 410 kts | 234° |
| 2026-04-25 06:10 | 34.43143 | 131.38011 | 28085 ft | 409 kts | 234° |
| 2026-04-25 06:11 | 34.39618 | 131.32660 | 28084 ft | 408 kts | 234° |
| 2026-04-25 06:11 | 34.36091 | 131.27307 | 28085 ft | 406 kts | 233° |
| 2026-04-25 06:12 | 34.32564 | 131.21970 | 28085 ft | 406 kts | 233° |
| 2026-04-25 06:12 | 34.29051 | 131.16661 | 28080 ft | 406 kts | 234° |
| 2026-04-25 06:13 | 34.25529 | 131.11348 | 28077 ft | 404 kts | 234° |
| 2026-04-25 06:14 | 34.20233 | 131.03397 | 28081 ft | 404 kts | 233° |
| 2026-04-25 06:14 | 34.16443 | 130.98425 | 28089 ft | 405 kts | 229° |
| 2026-04-25 06:15 | 34.12520 | 130.93600 | 28086 ft | 402 kts | 229° |
| 2026-04-25 06:15 | 34.08601 | 130.88788 | 28085 ft | 402 kts | 229° |
| 2026-04-25 06:16 | 34.04710 | 130.84021 | 28090 ft | 402 kts | 229° |
| 2026-04-25 06:16 | 34.00766 | 130.79199 | 28079 ft | 402 kts | 229° |
| 2026-04-25 06:17 | 33.96847 | 130.74412 | 28084 ft | 402 kts | 229° |
| 2026-04-25 06:17 | 33.92941 | 130.69656 | 28083 ft | 400 kts | 229° |
| 2026-04-25 06:18 | 33.89019 | 130.64883 | 28089 ft | 401 kts | 229° |
| 2026-04-25 06:18 | 33.85123 | 130.60150 | 28079 ft | 400 kts | 228° |
| 2026-04-25 06:19 | 33.81215 | 130.55415 | 28070 ft | 399 kts | 229° |
| 2026-04-25 06:19 | 33.77311 | 130.50681 | 28065 ft | 399 kts | 229° |
| 2026-04-25 06:20 | 33.73406 | 130.45953 | 28064 ft | 398 kts | 229° |
| 2026-04-25 06:20 | 33.69514 | 130.41217 | 28065 ft | 397 kts | 230° |
| 2026-04-25 06:21 | 33.65898 | 130.36185 | 28068 ft | 398 kts | 234° |
| 2026-04-25 06:21 | 33.62581 | 130.30962 | 28073 ft | 397 kts | 234° |
| 2026-04-25 06:22 | 33.59235 | 130.25703 | 28068 ft | 396 kts | 234° |
| 2026-04-25 06:22 | 33.55882 | 130.20435 | 28070 ft | 397 kts | 235° |
| 2026-04-25 06:23 | 33.52557 | 130.15199 | 28063 ft | 397 kts | 234° |
| 2026-04-25 06:23 | 33.49209 | 130.09941 | 28062 ft | 398 kts | 234° |
| 2026-04-25 06:24 | 33.45857 | 130.04677 | 28059 ft | 397 kts | 234° |
| 2026-04-25 06:24 | 33.42516 | 129.99440 | 28049 ft | 396 kts | 235° |
| 2026-04-25 06:25 | 33.39191 | 129.94234 | 28047 ft | 398 kts | 234° |
| 2026-04-25 06:25 | 33.35833 | 129.88983 | 28039 ft | 397 kts | 234° |
| 2026-04-25 06:26 | 33.32477 | 129.83746 | 28053 ft | 398 kts | 234° |
| 2026-04-25 06:26 | 33.29112 | 129.78507 | 28057 ft | 397 kts | 234° |
| 2026-04-25 06:27 | 33.25737 | 129.73251 | 28062 ft | 398 kts | 234° |
| 2026-04-25 06:27 | 33.22461 | 129.68007 | 28069 ft | 396 kts | 238° |
| 2026-04-25 06:28 | 33.19717 | 129.62279 | 28069 ft | 396 kts | 244° |
| 2026-04-25 06:28 | 33.17560 | 129.56258 | 28055 ft | 395 kts | 247° |
| 2026-04-25 06:29 | 33.15480 | 129.50211 | 28050 ft | 395 kts | 247° |
| 2026-04-25 06:29 | 33.13408 | 129.44168 | 28066 ft | 395 kts | 247° |
| 2026-04-25 06:30 | 33.11332 | 129.38129 | 28055 ft | 395 kts | 247° |
| 2026-04-25 06:30 | 33.09253 | 129.32086 | 28055 ft | 394 kts | 246° |
| 2026-04-25 06:31 | 33.07175 | 129.26051 | 28066 ft | 394 kts | 247° |
| 2026-04-25 06:31 | 33.05100 | 129.20030 | 28062 ft | 395 kts | 247° |
| 2026-04-25 06:32 | 33.03010 | 129.13989 | 28063 ft | 395 kts | 247° |
| 2026-04-25 06:32 | 33.00923 | 129.07953 | 28061 ft | 396 kts | 246° |
| 2026-04-25 06:33 | 32.98830 | 129.01915 | 28059 ft | 394 kts | 246° |
| 2026-04-25 06:33 | 32.96740 | 128.95898 | 28063 ft | 396 kts | 246° |
| 2026-04-25 06:34 | 32.94633 | 128.89844 | 28059 ft | 396 kts | 246° |
| 2026-04-25 06:34 | 32.92514 | 128.83780 | 28058 ft | 396 kts | 247° |
| 2026-04-25 06:35 | 32.90416 | 128.77777 | 28054 ft | 396 kts | 246° |
| 2026-04-25 06:35 | 32.88305 | 128.71745 | 28060 ft | 396 kts | 247° |
| 2026-04-25 06:36 | 32.86187 | 128.65701 | 28055 ft | 397 kts | 246° |
| 2026-04-25 06:36 | 32.84065 | 128.59660 | 28066 ft | 397 kts | 247° |
| 2026-04-25 06:37 | 32.81950 | 128.53642 | 28059 ft | 398 kts | 246° |
| 2026-04-25 06:37 | 32.79807 | 128.47575 | 28048 ft | 398 kts | 247° |
| 2026-04-25 06:38 | 32.77678 | 128.41547 | 28050 ft | 398 kts | 247° |
| 2026-04-25 06:38 | 32.75536 | 128.35495 | 28044 ft | 399 kts | 247° |
| 2026-04-25 06:39 | 32.73401 | 128.29468 | 28041 ft | 398 kts | 246° |
| 2026-04-25 06:39 | 32.71244 | 128.23398 | 28037 ft | 398 kts | 246° |
| 2026-04-25 06:40 | 32.69093 | 128.17360 | 28044 ft | 398 kts | 246° |
| 2026-04-25 06:40 | 32.66942 | 128.11327 | 28044 ft | 399 kts | 246° |
| 2026-04-25 06:41 | 32.64780 | 128.05273 | 28039 ft | 399 kts | 246° |
| 2026-04-25 06:41 | 32.62610 | 127.99216 | 28042 ft | 400 kts | 246° |
| 2026-04-25 06:42 | 32.60439 | 127.93150 | 28040 ft | 400 kts | 246° |
| 2026-04-25 06:42 | 32.58263 | 127.87096 | 28048 ft | 401 kts | 246° |
| 2026-04-25 06:43 | 32.56069 | 127.80990 | 28039 ft | 402 kts | 246° |
| 2026-04-25 06:43 | 32.53883 | 127.74931 | 28047 ft | 401 kts | 246° |
| 2026-04-25 06:44 | 32.51693 | 127.68884 | 28046 ft | 402 kts | 246° |
| 2026-04-25 06:44 | 32.49490 | 127.62788 | 28043 ft | 403 kts | 246° |
| 2026-04-25 06:45 | 32.47292 | 127.56717 | 28041 ft | 404 kts | 246° |
| 2026-04-25 06:45 | 32.45065 | 127.50590 | 28043 ft | 404 kts | 246° |
| 2026-04-25 06:46 | 32.42866 | 127.44539 | 28047 ft | 403 kts | 246° |
| 2026-04-25 06:46 | 32.40634 | 127.38416 | 28053 ft | 404 kts | 246° |
| 2026-04-25 06:47 | 32.38418 | 127.32337 | 28045 ft | 404 kts | 245° |
| 2026-04-25 06:47 | 32.36198 | 127.26276 | 28038 ft | 404 kts | 245° |
| 2026-04-25 06:48 | 32.33939 | 127.20119 | 28045 ft | 404 kts | 245° |
| 2026-04-25 06:48 | 32.31704 | 127.14025 | 28048 ft | 404 kts | 246° |
| 2026-04-25 06:49 | 32.29480 | 127.07942 | 28039 ft | 405 kts | 247° |
| 2026-04-25 06:49 | 32.27600 | 127.01722 | 28047 ft | 404 kts | 251° |
| 2026-04-25 06:50 | 32.26118 | 126.95290 | 28040 ft | 406 kts | 253° |
| 2026-04-25 06:50 | 32.24688 | 126.88858 | 28047 ft | 406 kts | 254° |
| 2026-04-25 06:51 | 32.23267 | 126.82431 | 28041 ft | 405 kts | 253° |
| 2026-04-25 06:51 | 32.21844 | 126.76000 | 28044 ft | 407 kts | 254° |
| 2026-04-25 06:52 | 32.20419 | 126.69559 | 28057 ft | 406 kts | 254° |
| 2026-04-25 06:52 | 32.18994 | 126.63124 | 28051 ft | 407 kts | 254° |
| 2026-04-25 06:53 | 32.17605 | 126.56676 | 28052 ft | 405 kts | 254° |
| 2026-04-25 06:53 | 32.16215 | 126.50216 | 28053 ft | 406 kts | 254° |
| 2026-04-25 06:54 | 32.14823 | 126.43806 | 28053 ft | 407 kts | 254° |
| 2026-04-25 06:54 | 32.13414 | 126.37330 | 28054 ft | 406 kts | 255° |
| 2026-04-25 06:55 | 32.12026 | 126.30942 | 28060 ft | 406 kts | 254° |
| 2026-04-25 06:55 | 32.10612 | 126.24483 | 28056 ft | 407 kts | 253° |
| 2026-04-25 06:56 | 32.09195 | 126.18025 | 28051 ft | 406 kts | 254° |
| 2026-04-25 06:56 | 32.07779 | 126.11602 | 28069 ft | 406 kts | 254° |
| 2026-04-25 06:57 | 32.06369 | 126.05190 | 28059 ft | 407 kts | 254° |
| 2026-04-25 06:57 | 32.04980 | 125.98712 | 28058 ft | 405 kts | 254° |
| 2026-04-25 06:58 | 32.03611 | 125.92315 | 28053 ft | 405 kts | 254° |
| 2026-04-25 06:58 | 32.02225 | 125.85896 | 28063 ft | 406 kts | 254° |
| 2026-04-25 06:59 | 32.00841 | 125.79485 | 28068 ft | 407 kts | 254° |
| 2026-04-25 06:59 | 31.99426 | 125.73028 | 28063 ft | 408 kts | 253° |
| 2026-04-25 07:00 | 31.97997 | 125.66591 | 28062 ft | 407 kts | 253° |
| 2026-04-25 07:00 | 31.96557 | 125.60131 | 28068 ft | 408 kts | 254° |
| 2026-04-25 07:01 | 31.95121 | 125.53685 | 28074 ft | 410 kts | 254° |
| 2026-04-25 07:01 | 31.93670 | 125.47206 | 28074 ft | 410 kts | 254° |
| 2026-04-25 07:02 | 31.92220 | 125.40739 | 28061 ft | 411 kts | 254° |
| 2026-04-25 07:02 | 31.90759 | 125.34236 | 28067 ft | 411 kts | 254° |
| 2026-04-25 07:03 | 31.89296 | 125.27736 | 28068 ft | 411 kts | 254° |
| 2026-04-25 07:03 | 31.87824 | 125.21228 | 28059 ft | 412 kts | 254° |
| 2026-04-25 07:04 | 31.86362 | 125.14753 | 28069 ft | 413 kts | 254° |
| 2026-04-25 07:04 | 31.84881 | 125.08231 | 28059 ft | 414 kts | 254° |
| 2026-04-25 07:05 | 31.83400 | 125.01735 | 28068 ft | 413 kts | 254° |
| 2026-04-25 07:05 | 31.81944 | 124.95151 | 28066 ft | 415 kts | 255° |
| 2026-04-25 07:06 | 31.80544 | 124.88631 | 28074 ft | 416 kts | 255° |
| 2026-04-25 07:06 | 31.79127 | 124.82072 | 28066 ft | 416 kts | 255° |
| 2026-04-25 07:07 | 31.77694 | 124.75476 | 28073 ft | 415 kts | 255° |
| 2026-04-25 07:07 | 31.76266 | 124.68921 | 28067 ft | 415 kts | 255° |
| 2026-04-25 07:08 | 31.74831 | 124.62354 | 28070 ft | 416 kts | 255° |
| 2026-04-25 07:08 | 31.73388 | 124.55774 | 28071 ft | 418 kts | 255° |
| 2026-04-25 07:09 | 31.71945 | 124.49205 | 28069 ft | 418 kts | 255° |
| 2026-04-25 07:09 | 31.70496 | 124.42633 | 28071 ft | 418 kts | 255° |
| 2026-04-25 07:10 | 31.69042 | 124.36050 | 28072 ft | 418 kts | 255° |
| 2026-04-25 07:10 | 31.67576 | 124.29446 | 28076 ft | 418 kts | 254° |
| 2026-04-25 07:11 | 31.66114 | 124.22868 | 28075 ft | 419 kts | 254° |
| 2026-04-25 07:11 | 31.64645 | 124.16281 | 28075 ft | 420 kts | 254° |
| 2026-04-25 07:12 | 31.63171 | 124.09684 | 28079 ft | 419 kts | 254° |
| 2026-04-25 07:12 | 31.60429 | 123.99961 | 28078 ft | 420 kts | 244° |
| 2026-04-25 07:13 | 31.57404 | 123.94119 | 28075 ft | 420 kts | 237° |
| 2026-04-25 07:13 | 31.54049 | 123.88548 | 28068 ft | 419 kts | 236° |
| 2026-04-25 07:14 | 31.50681 | 123.83002 | 28079 ft | 420 kts | 236° |
| 2026-04-25 07:14 | 31.47293 | 123.77435 | 27942 ft | 415 kts | 236° |
| 2026-04-25 07:15 | 31.45627 | 123.74701 | 27686 ft | 418 kts | 236° |
| 2026-04-25 07:15 | 31.43932 | 123.71915 | 27680 ft | 419 kts | 236° |
| 2026-04-25 07:15 | 31.42233 | 123.69129 | 27679 ft | 421 kts | 236° |
| 2026-04-25 07:15 | 31.40535 | 123.66348 | 27675 ft | 421 kts | 236° |
| 2026-04-25 07:16 | 31.38853 | 123.63597 | 27676 ft | 421 kts | 236° |
| 2026-04-25 07:16 | 31.37150 | 123.60812 | 27670 ft | 420 kts | 236° |
| 2026-04-25 07:16 | 31.35445 | 123.58021 | 27674 ft | 418 kts | 236° |
| 2026-04-25 07:16 | 31.33771 | 123.55288 | 27676 ft | 419 kts | 236° |
| 2026-04-25 07:17 | 31.32068 | 123.52499 | 27671 ft | 419 kts | 236° |
| 2026-04-25 07:17 | 31.30380 | 123.49718 | 27669 ft | 418 kts | 236° |
| 2026-04-25 07:17 | 31.28710 | 123.46962 | 27672 ft | 418 kts | 236° |
| 2026-04-25 07:17 | 31.27035 | 123.44205 | 27669 ft | 418 kts | 236° |
| 2026-04-25 07:18 | 31.25357 | 123.41443 | 27672 ft | 418 kts | 236° |
| 2026-04-25 07:18 | 31.23678 | 123.38681 | 27672 ft | 418 kts | 236° |
| 2026-04-25 07:18 | 31.21991 | 123.35913 | 27671 ft | 418 kts | 236° |
| 2026-04-25 07:18 | 31.20302 | 123.33144 | 27670 ft | 418 kts | 236° |
| 2026-04-25 07:19 | 31.18628 | 123.30401 | 27672 ft | 418 kts | 236° |
| 2026-04-25 07:19 | 31.16929 | 123.27619 | 27673 ft | 419 kts | 236° |
| 2026-04-25 07:19 | 31.15253 | 123.24877 | 27670 ft | 419 kts | 236° |
| 2026-04-25 07:19 | 31.13546 | 123.22084 | 27666 ft | 418 kts | 236° |
| 2026-04-25 07:20 | 31.11869 | 123.19346 | 27664 ft | 417 kts | 236° |
| 2026-04-25 07:20 | 31.10189 | 123.16601 | 27664 ft | 416 kts | 236° |
| 2026-04-25 07:20 | 31.08507 | 123.13857 | 27665 ft | 415 kts | 236° |
| 2026-04-25 07:20 | 31.06837 | 123.11133 | 27661 ft | 415 kts | 236° |
| 2026-04-25 07:21 | 31.05166 | 123.08414 | 27664 ft | 414 kts | 236° |
| 2026-04-25 07:21 | 31.03494 | 123.05685 | 27662 ft | 415 kts | 236° |
| 2026-04-25 07:21 | 31.01934 | 123.02853 | 27655 ft | 413 kts | 242° |
| 2026-04-25 07:21 | 31.00837 | 122.99761 | 27658 ft | 414 kts | 251° |
| 2026-04-25 07:22 | 31.00217 | 122.96506 | 27669 ft | 417 kts | 260° |
| 2026-04-25 07:22 | 31.00054 | 122.93106 | 27670 ft | 420 kts | 266° |
| 2026-04-25 07:22 | 31.00035 | 122.89751 | 27665 ft | 420 kts | 266° |
| 2026-04-25 07:22 | 31.00028 | 122.86328 | 27664 ft | 420 kts | 267° |
| 2026-04-25 07:23 | 31.00025 | 122.82958 | 27667 ft | 420 kts | 267° |
| 2026-04-25 07:23 | 31.00024 | 122.79539 | 27675 ft | 421 kts | 267° |
| 2026-04-25 07:23 | 31.00019 | 122.76138 | 27667 ft | 422 kts | 267° |
| 2026-04-25 07:23 | 31.00016 | 122.72707 | 27672 ft | 422 kts | 268° |
| 2026-04-25 07:24 | 31.00014 | 122.69304 | 27674 ft | 423 kts | 268° |
| 2026-04-25 07:24 | 31.00011 | 122.65916 | 27666 ft | 422 kts | 267° |
| 2026-04-25 07:24 | 31.00009 | 122.62473 | 27669 ft | 423 kts | 267° |
| 2026-04-25 07:24 | 31.00012 | 122.59042 | 27663 ft | 423 kts | 268° |
| 2026-04-25 07:25 | 31.00014 | 122.55637 | 27656 ft | 423 kts | 267° |
| 2026-04-25 07:25 | 31.00016 | 122.52216 | 27667 ft | 423 kts | 267° |
| 2026-04-25 07:25 | 31.00013 | 122.48811 | 27675 ft | 423 kts | 268° |
| 2026-04-25 07:25 | 31.00010 | 122.45377 | 27670 ft | 425 kts | 268° |
| 2026-04-25 07:26 | 31.00007 | 122.41971 | 27663 ft | 425 kts | 268° |
| 2026-04-25 07:26 | 31.00008 | 122.38496 | 27665 ft | 425 kts | 268° |
| 2026-04-25 07:26 | 31.00008 | 122.35078 | 27664 ft | 425 kts | 267° |
| 2026-04-25 07:26 | 30.99641 | 122.31658 | 27660 ft | 423 kts | 254° |
| 2026-04-25 07:27 | 30.98531 | 122.28548 | 27663 ft | 422 kts | 240° |
| 2026-04-25 07:27 | 30.96746 | 122.25810 | 27669 ft | 426 kts | 227° |
| 2026-04-25 07:27 | 30.94407 | 122.23669 | 27664 ft | 431 kts | 214° |
| 2026-04-25 07:27 | 30.91636 | 122.22265 | 27664 ft | 438 kts | 202° |
| 2026-04-25 07:28 | 30.88711 | 122.21257 | 27670 ft | 435 kts | 201° |
| 2026-04-25 07:28 | 30.85844 | 122.20283 | 27660 ft | 435 kts | 201° |
| 2026-04-25 07:28 | 30.82991 | 122.19126 | 27629 ft | 430 kts | 209° |
| 2026-04-25 07:28 | 30.80434 | 122.17316 | 27659 ft | 425 kts | 220° |
| 2026-04-25 07:29 | 30.78322 | 122.14997 | 27659 ft | 423 kts | 231° |
| 2026-04-25 07:29 | 30.76596 | 122.12212 | 27674 ft | 421 kts | 237° |
| 2026-04-25 07:29 | 30.74986 | 122.09365 | 27670 ft | 422 kts | 238° |
| 2026-04-25 07:29 | 30.73400 | 122.06544 | 27664 ft | 422 kts | 238° |
| 2026-04-25 07:30 | 30.71790 | 122.03677 | 27663 ft | 422 kts | 238° |
| 2026-04-25 07:30 | 30.70189 | 122.00822 | 27661 ft | 422 kts | 238° |
| 2026-04-25 07:30 | 30.68600 | 121.97994 | 27657 ft | 422 kts | 238° |
| 2026-04-25 07:30 | 30.66991 | 121.95130 | 27658 ft | 422 kts | 238° |
| 2026-04-25 07:31 | 30.65393 | 121.92289 | 27651 ft | 421 kts | 238° |
| 2026-04-25 07:31 | 30.63801 | 121.89463 | 27663 ft | 420 kts | 238° |
| 2026-04-25 07:31 | 30.62202 | 121.86624 | 27658 ft | 421 kts | 238° |
| 2026-04-25 07:31 | 30.60597 | 121.83777 | 27656 ft | 421 kts | 238° |
| 2026-04-25 07:32 | 30.58993 | 121.80934 | 27657 ft | 420 kts | 238° |
| 2026-04-25 07:32 | 30.57393 | 121.78101 | 27659 ft | 421 kts | 238° |
| 2026-04-25 07:32 | 30.55800 | 121.75282 | 27653 ft | 420 kts | 238° |
| 2026-04-25 07:32 | 30.54216 | 121.72478 | 27657 ft | 420 kts | 238° |
| 2026-04-25 07:33 | 30.52606 | 121.69634 | 27657 ft | 420 kts | 238° |
| 2026-04-25 07:33 | 30.51018 | 121.66830 | 27559 ft | 419 kts | 238° |
| 2026-04-25 07:33 | 30.49410 | 121.63992 | 27302 ft | 419 kts | 238° |
| 2026-04-25 07:33 | 30.47825 | 121.61197 | 27048 ft | 417 kts | 238° |
| 2026-04-25 07:34 | 30.46220 | 121.58371 | 26775 ft | 417 kts | 238° |
| 2026-04-25 07:34 | 30.44648 | 121.55601 | 26172 ft | 418 kts | 238° |
| 2026-04-25 07:34 | 30.43041 | 121.52773 | 25344 ft | 420 kts | 238° |
| 2026-04-25 07:34 | 30.41446 | 121.49970 | 24398 ft | 424 kts | 238° |
| 2026-04-25 07:35 | 30.39800 | 121.47078 | 23298 ft | 432 kts | 238° |
| 2026-04-25 07:35 | 30.38152 | 121.44185 | 22419 ft | 433 kts | 238° |
| 2026-04-25 07:35 | 30.36523 | 121.41329 | 21757 ft | 429 kts | 238° |
| 2026-04-25 07:35 | 30.34888 | 121.38468 | 21112 ft | 425 kts | 238° |
| 2026-04-25 07:36 | 30.33273 | 121.35638 | 20473 ft | 421 kts | 238° |
| 2026-04-25 07:36 | 30.31659 | 121.32814 | 19839 ft | 417 kts | 237° |
| 2026-04-25 07:36 | 30.30086 | 121.30063 | 19210 ft | 414 kts | 237° |
| 2026-04-25 07:36 | 30.28496 | 121.27284 | 18594 ft | 410 kts | 237° |
| 2026-04-25 07:37 | 30.26942 | 121.24571 | 17968 ft | 407 kts | 237° |
| 2026-04-25 07:37 | 30.25357 | 121.21857 | 17356 ft | 404 kts | 235° |
| 2026-04-25 07:37 | 30.23706 | 121.19241 | 16757 ft | 401 kts | 234° |
| 2026-04-25 07:37 | 30.22067 | 121.16672 | 16154 ft | 399 kts | 234° |
| 2026-04-25 07:38 | 30.20422 | 121.14095 | 15541 ft | 396 kts | 234° |
| 2026-04-25 07:38 | 30.18803 | 121.11561 | 14941 ft | 393 kts | 234° |
| 2026-04-25 07:38 | 30.17179 | 121.09022 | 14335 ft | 390 kts | 234° |
| 2026-04-25 07:38 | 30.15581 | 121.06522 | 13756 ft | 387 kts | 234° |
| 2026-04-25 07:39 | 30.13993 | 121.04039 | 13152 ft | 385 kts | 235° |
| 2026-04-25 07:39 | 30.12405 | 121.01562 | 12546 ft | 382 kts | 234° |
| 2026-04-25 07:39 | 30.10848 | 120.99131 | 11949 ft | 381 kts | 235° |
| 2026-04-25 07:39 | 30.09279 | 120.96687 | 11356 ft | 378 kts | 235° |
| 2026-04-25 07:40 | 30.07715 | 120.94247 | 11020 ft | 371 kts | 235° |
| 2026-04-25 07:40 | 30.06197 | 120.91876 | 10731 ft | 365 kts | 235° |
| 2026-04-25 07:40 | 30.04706 | 120.89552 | 10365 ft | 356 kts | 236° |
| 2026-04-25 07:40 | 30.03534 | 120.87115 | 10093 ft | 342 kts | 253° |
| 2026-04-25 07:41 | 30.03208 | 120.84466 | 9888 ft | 327 kts | 273° |
| 2026-04-25 07:41 | 30.03638 | 120.81994 | 9863 ft | 309 kts | 290° |
| 2026-04-25 07:41 | 30.04422 | 120.79752 | 9840 ft | 292 kts | 292° |
| 2026-04-25 07:41 | 30.05178 | 120.77663 | 9828 ft | 279 kts | 292° |
| 2026-04-25 07:42 | 30.05922 | 120.75605 | 9821 ft | 278 kts | 292° |
| 2026-04-25 07:42 | 30.06663 | 120.73540 | 9819 ft | 278 kts | 292° |
| 2026-04-25 07:42 | 30.07397 | 120.71481 | 9823 ft | 278 kts | 292° |
| 2026-04-25 07:42 | 30.08134 | 120.69405 | 9820 ft | 279 kts | 292° |
| 2026-04-25 07:43 | 30.08862 | 120.67347 | 9812 ft | 278 kts | 292° |
| 2026-04-25 07:43 | 30.09597 | 120.65267 | 9818 ft | 278 kts | 292° |
| 2026-04-25 07:43 | 30.10319 | 120.63223 | 9806 ft | 278 kts | 292° |
| 2026-04-25 07:43 | 30.11049 | 120.61155 | 9721 ft | 280 kts | 292° |
| 2026-04-25 07:44 | 30.11786 | 120.59061 | 9321 ft | 280 kts | 292° |
| 2026-04-25 07:44 | 30.12514 | 120.56992 | 8940 ft | 278 kts | 292° |
| 2026-04-25 07:44 | 30.13235 | 120.54942 | 8586 ft | 275 kts | 292° |
| 2026-04-25 07:44 | 30.13952 | 120.52906 | 8232 ft | 273 kts | 292° |
| 2026-04-25 07:45 | 30.14662 | 120.50885 | 7903 ft | 270 kts | 292° |
| 2026-04-25 07:45 | 30.15364 | 120.48888 | 7709 ft | 261 kts | 292° |
| 2026-04-25 07:45 | 30.15912 | 120.46975 | 7582 ft | 250 kts | 276° |
| 2026-04-25 07:45 | 30.15657 | 120.45024 | 7334 ft | 245 kts | 247° |
| 2026-04-25 07:46 | 30.14869 | 120.43291 | 7031 ft | 245 kts | 243° |
| 2026-04-25 07:46 | 30.14068 | 120.41572 | 6734 ft | 244 kts | 243° |
| 2026-04-25 07:46 | 30.13275 | 120.39838 | 6425 ft | 243 kts | 243° |
| 2026-04-25 07:46 | 30.12490 | 120.38104 | 6110 ft | 242 kts | 244° |
| 2026-04-25 07:47 | 30.11725 | 120.36401 | 5824 ft | 241 kts | 244° |
| 2026-04-25 07:47 | 30.10951 | 120.34669 | 5505 ft | 241 kts | 243° |
| 2026-04-25 07:47 | 30.10179 | 120.32940 | 5195 ft | 241 kts | 243° |
| 2026-04-25 07:47 | 30.09420 | 120.31235 | 4887 ft | 240 kts | 243° |
| 2026-04-25 07:48 | 30.08657 | 120.29529 | 4583 ft | 239 kts | 243° |
| 2026-04-25 07:48 | 30.07899 | 120.27828 | 4313 ft | 236 kts | 243° |
| 2026-04-25 07:48 | 30.07162 | 120.26173 | 4075 ft | 232 kts | 243° |
| 2026-04-25 07:48 | 30.06429 | 120.24531 | 3833 ft | 228 kts | 242° |
| 2026-04-25 07:49 | 30.05708 | 120.22916 | 3585 ft | 224 kts | 242° |
| 2026-04-25 07:49 | 30.05155 | 120.21252 | 3276 ft | 224 kts | 265° |
| 2026-04-25 07:49 | 30.05405 | 120.19552 | 3087 ft | 218 kts | 295° |
| 2026-04-25 07:49 | 30.06363 | 120.18214 | 2975 ft | 211 kts | 324° |
| 2026-04-25 07:50 | 30.07612 | 120.17419 | 2973 ft | 201 kts | 335° |
| 2026-04-25 07:50 | 30.08904 | 120.16849 | 2963 ft | 199 kts | 352° |
| 2026-04-25 07:50 | 30.10269 | 120.16981 | 2968 ft | 196 kts | 21° |
| 2026-04-25 07:50 | 30.11349 | 120.17891 | 2978 ft | 194 kts | 49° |
| 2026-04-25 07:51 | 30.12117 | 120.19149 | 2981 ft | 193 kts | 59° |
| 2026-04-25 07:51 | 30.12787 | 120.20521 | 2978 ft | 194 kts | 62° |
| 2026-04-25 07:51 | 30.13406 | 120.21878 | 2974 ft | 193 kts | 63° |
| 2026-04-25 07:51 | 30.14026 | 120.23267 | 2981 ft | 192 kts | 63° |
| 2026-04-25 07:52 | 30.14625 | 120.24624 | 2967 ft | 186 kts | 63° |
| 2026-04-25 07:52 | 30.15187 | 120.25898 | 2897 ft | 165 kts | 63° |
| 2026-04-25 07:52 | 30.15683 | 120.27021 | 2714 ft | 152 kts | 63° |
| 2026-04-25 07:52 | 30.16154 | 120.28090 | 2518 ft | 150 kts | 64° |
| 2026-04-25 07:53 | 30.16628 | 120.29163 | 2328 ft | 150 kts | 64° |
| 2026-04-25 07:53 | 30.17101 | 120.30231 | 2135 ft | 148 kts | 64° |
| 2026-04-25 07:53 | 30.17567 | 120.31286 | 1978 ft | 146 kts | 64° |
| 2026-04-25 07:53 | 30.18014 | 120.32295 | 1767 ft | 137 kts | 64° |
| 2026-04-25 07:54 | 30.18442 | 120.33263 | 1585 ft | 135 kts | 64° |
| 2026-04-25 07:54 | 30.18870 | 120.34232 | 1409 ft | 135 kts | 63° |
| 2026-04-25 07:54 | 30.19301 | 120.35205 | 1238 ft | 135 kts | 63° |
| 2026-04-25 07:54 | 30.19729 | 120.36171 | 1067 ft | 135 kts | 63° |
| 2026-04-25 07:55 | 30.20153 | 120.37128 | 895 ft | 134 kts | 62° |
| 2026-04-25 07:55 | 30.20577 | 120.38084 | 720 ft | 134 kts | 63° |
| 2026-04-25 07:55 | 30.21006 | 120.39055 | 552 ft | 134 kts | 62° |
| 2026-04-25 07:55 | 30.21434 | 120.40009 | 369 ft | 133 kts | 63° |
| 2026-04-25 07:56 | 30.21856 | 120.40958 | 201 ft | 133 kts | 65° |
| 2026-04-25 07:56 | 30.22268 | 120.41917 | 52 ft | 132 kts | 61° |
| 2026-04-25 07:56 | 30.22654 | 120.42770 | 29 ft | 101 kts | 62° |
| 2026-04-25 07:56 | 30.22906 | 120.43340 | 29 ft | 60 kts | 63° |
| 2026-04-25 07:57 | 30.23103 | 120.43681 | 29 ft | 47 kts | 38° |
| 2026-04-25 07:57 | 30.23283 | 120.43828 | 29 ft | 24 kts | 35° |
| 2026-04-25 07:57 | 30.23371 | 120.43958 | 29 ft | 18 kts | 62° |
| 2026-04-25 07:57 | 30.23434 | 120.44080 | 29 ft | 14 kts | 27° |
| 2026-04-25 07:58 | 30.23473 | 120.44070 | 29 ft | 3 kts | 337° |
| 2026-04-25 07:58 | 30.23557 | 120.44025 | 29 ft | 24 kts | 333° |
| 2026-04-25 07:58 | 30.23714 | 120.43932 | 29 ft | 25 kts | 333° |
| 2026-04-25 07:58 | 30.23868 | 120.43842 | 29 ft | 23 kts | 334° |
| 2026-04-25 07:59 | 30.24012 | 120.43757 | 29 ft | 22 kts | 333° |
| 2026-04-25 07:59 | 30.24151 | 120.43675 | 29 ft | 22 kts | 333° |
| 2026-04-25 07:59 | 30.24286 | 120.43596 | 29 ft | 21 kts | 332° |
| 2026-04-25 07:59 | 30.24418 | 120.43518 | 29 ft | 20 kts | 333° |
| 2026-04-25 08:00 | 30.24546 | 120.43443 | 29 ft | 20 kts | 333° |
| 2026-04-25 08:00 | 30.24638 | 120.43360 | 29 ft | 15 kts | 280° |
| 2026-04-25 08:00 | 30.24599 | 120.43250 | 29 ft | 15 kts | 244° |
| 2026-04-25 08:00 | 30.24550 | 120.43138 | 29 ft | 15 kts | 242° |
| 2026-04-25 08:01 | 30.24500 | 120.43024 | 29 ft | 15 kts | 243° |
| 2026-04-25 08:01 | 30.24449 | 120.42909 | 29 ft | 16 kts | 242° |
| 2026-04-25 08:01 | 30.24396 | 120.42792 | 29 ft | 16 kts | 243° |
| 2026-04-25 08:01 | 30.24344 | 120.42673 | 29 ft | 16 kts | 243° |
| 2026-04-25 08:02 | 30.24291 | 120.42553 | 29 ft | 16 kts | 242° |
| 2026-04-25 08:02 | 30.24239 | 120.42466 | 29 ft | 11 kts | 199° |
| 2026-04-25 08:02 | 30.24164 | 120.42476 | 29 ft | 10 kts | 219° |
| 2026-04-25 08:02 | 30.24126 | 120.42399 | 29 ft | 11 kts | 243° |
| 2026-04-25 08:03 | 30.24087 | 120.42313 | 29 ft | 12 kts | 242° |
| 2026-04-25 08:03 | 30.24047 | 120.42221 | 29 ft | 13 kts | 243° |
| 2026-04-25 08:03 | 30.24004 | 120.42124 | 29 ft | 13 kts | 243° |
| 2026-04-25 08:03 | 30.23959 | 120.42023 | 29 ft | 14 kts | 242° |
| 2026-04-25 08:04 | 30.23912 | 120.41919 | 29 ft | 14 kts | 242° |
| 2026-04-25 08:04 | 30.23864 | 120.41812 | 29 ft | 15 kts | 243° |
| 2026-04-25 08:04 | 30.23782 | 120.41773 | 29 ft | 15 kts | 153° |
| 2026-04-25 08:04 | 30.23718 | 120.41852 | 29 ft | 10 kts | 91° |
| 2026-04-25 08:05 | 30.23716 | 120.41921 | 29 ft | 5 kts | 92° |
| 2026-04-25 08:05 | 30.23715 | 120.41936 | 29 ft | 0 kts | 91° |